Time;durP1;ratioP1;P1;durP2;ratioP2;P2;SDS_P1;SDS_P2;PMS_P1;PMS_P2;Temp;Humidity;BMP_temperature;BMP_pressure;BME280_temperature;BME280_humidity;BME280_pressure;Samples;Min_cycle;Max_cycle;Signal;HPM_P1;HPM_P2
2022/07/28 00:00:26;;;;;;;;;;;17.00;99.90;;;;;;8431204;28;20274;-66
2022/07/28 00:04:28;;;;;;;;;;;17.00;99.90;;;;;;8429462;28;19919;-66
2022/07/28 00:08:30;;;;;;;;;;;17.00;99.90;;;;;;8431056;28;19931;-66
2022/07/28 00:12:32;;;;;;;;;;;17.00;99.90;;;;;;8427510;28;19920;-66
2022/07/28 00:16:33;;;;;;;;;;;16.90;99.90;;;;;;8429052;28;20235;-66
2022/07/28 00:20:35;;;;;;;;;;;16.90;99.90;;;;;;8429169;28;19926;-66
2022/07/28 00:24:37;;;;;;;;;;;16.90;99.90;;;;;;8428998;28;19958;-66
2022/07/28 00:28:38;;;;;;;;;;;16.90;99.90;;;;;;8425762;28;19920;-66
2022/07/28 00:32:40;;;;;;;;;;;16.80;99.90;;;;;;8429301;28;19931;-66
2022/07/28 00:37:09;;;;;;;;;;;16.90;99.90;;;;;;8415278;28;19927;-65
2022/07/28 00:46:18;;;;;;;;;;;16.80;99.90;;;;;;8427745;28;19914;-65
2022/07/28 00:50:20;;;;;;;;;;;16.70;99.90;;;;;;8429409;28;19945;-66
2022/07/28 00:54:22;;;;;;;;;;;16.60;99.90;;;;;;8428200;28;19920;-66
2022/07/28 00:58:25;;;;;;;;;;;16.50;99.90;;;;;;8428223;28;19920;-65
2022/07/28 01:02:26;;;;;;;;;;;16.40;99.90;;;;;;8427615;28;19931;-65
2022/07/28 01:06:46;;;;;;;;;;;16.40;99.90;;;;;;8424973;28;19926;-65
2022/07/28 01:10:56;;;;;;;;;;;16.30;99.90;;;;;;8429307;28;20229;-66
2022/07/28 01:15:19;;;;;;;;;;;16.20;99.90;;;;;;8426652;28;19920;-66
2022/07/28 01:19:30;;;;;;;;;;;16.20;99.90;;;;;;8428221;28;19919;-65
2022/07/28 01:23:31;;;;;;;;;;;16.10;99.90;;;;;;8428358;28;19920;-66
2022/07/28 01:27:55;;;;;;;;;;;16.10;99.90;;;;;;8427273;28;19928;-66
2022/07/28 01:32:03;;;;;;;;;;;16.00;99.90;;;;;;8422392;28;19924;-68
2022/07/28 01:36:10;;;;;;;;;;;15.90;99.90;;;;;;8410249;28;20213;-68
2022/07/28 01:40:13;;;;;;;;;;;15.90;99.90;;;;;;8417549;28;20416;-68
2022/07/28 01:44:17;;;;;;;;;;;15.80;99.90;;;;;;8420760;28;20539;-68
2022/07/28 01:48:19;;;;;;;;;;;15.70;99.90;;;;;;8427260;28;19919;-67
2022/07/28 01:52:21;;;;;;;;;;;15.70;99.90;;;;;;8427367;28;20378;-67
2022/07/28 01:56:24;;;;;;;;;;;15.60;99.90;;;;;;8425872;28;20264;-67
2022/07/28 02:00:26;;;;;;;;;;;15.60;99.90;;;;;;8426836;28;19920;-67
2022/07/28 02:04:29;;;;;;;;;;;15.60;99.90;;;;;;8426602;28;19966;-67
2022/07/28 02:08:32;;;;;;;;;;;15.50;99.90;;;;;;8431223;28;19928;-67
2022/07/28 02:12:35;;;;;;;;;;;15.50;99.90;;;;;;8433919;28;19927;-67
2022/07/28 02:16:40;;;;;;;;;;;15.40;99.90;;;;;;8431744;28;19920;-67
2022/07/28 02:20:42;;;;;;;;;;;15.30;99.90;;;;;;8433235;28;20290;-67
2022/07/28 02:24:44;;;;;;;;;;;15.30;99.90;;;;;;8432801;28;20191;-67
2022/07/28 02:28:50;;;;;;;;;;;15.20;99.90;;;;;;8433669;28;19920;-67
2022/07/28 02:32:55;;;;;;;;;;;15.20;99.90;;;;;;8432224;28;20226;-67
2022/07/28 02:36:59;;;;;;;;;;;15.10;99.90;;;;;;8417991;28;19928;-67
2022/07/28 02:41:04;;;;;;;;;;;15.10;99.90;;;;;;8433226;28;19920;-67
2022/07/28 02:45:07;;;;;;;;;;;15.10;99.90;;;;;;8430715;28;19920;-67
2022/07/28 02:49:15;;;;;;;;;;;15.10;99.90;;;;;;8433259;28;19920;-67
2022/07/28 02:53:17;;;;;;;;;;;15.10;99.90;;;;;;8432773;28;19921;-67
2022/07/28 02:57:18;;;;;;;;;;;15.10;99.90;;;;;;8431916;28;19920;-67
2022/07/28 03:01:21;;;;;;;;;;;15.10;99.90;;;;;;8432628;28;19924;-67
2022/07/28 03:05:22;;;;;;;;;;;15.10;99.90;;;;;;8428805;28;20356;-67
2022/07/28 03:09:24;;;;;;;;;;;15.10;99.90;;;;;;8432473;28;19920;-67
2022/07/28 03:13:26;;;;;;;;;;;15.10;99.90;;;;;;8432374;28;20220;-67
2022/07/28 03:17:27;;;;;;;;;;;15.10;99.90;;;;;;8429971;28;20310;-67
2022/07/28 03:21:29;;;;;;;;;;;15.00;99.90;;;;;;8431675;28;19924;-67
2022/07/28 03:25:37;;;;;;;;;;;15.00;99.90;;;;;;8426410;28;19920;-67
2022/07/28 03:29:40;;;;;;;;;;;15.00;99.90;;;;;;8432353;28;19924;-67
2022/07/28 03:33:42;;;;;;;;;;;15.00;99.90;;;;;;8430979;28;19920;-67
2022/07/28 03:37:43;;;;;;;;;;;15.00;99.90;;;;;;8415562;28;20272;-67
2022/07/28 03:41:46;;;;;;;;;;;15.00;99.90;;;;;;8431289;28;19920;-67
2022/07/28 03:45:47;;;;;;;;;;;15.00;99.90;;;;;;8430150;28;20213;-67
2022/07/28 03:49:49;;;;;;;;;;;14.90;99.90;;;;;;8424505;28;19927;-67
2022/07/28 03:53:51;;;;;;;;;;;14.90;99.90;;;;;;8428271;28;20367;-67
2022/07/28 03:57:52;;;;;;;;;;;14.90;99.90;;;;;;8427877;28;20308;-67
2022/07/28 04:01:55;;;;;;;;;;;14.90;99.90;;;;;;8429773;28;19943;-67
2022/07/28 04:05:56;;;;;;;;;;;14.90;99.90;;;;;;8429064;28;20795;-67
2022/07/28 04:15:12;;;;;;;;;;;14.80;99.90;;;;;;8422395;28;19966;-67
2022/07/28 04:19:13;;;;;;;;;;;14.70;99.90;;;;;;8429350;28;19924;-67
2022/07/28 04:23:15;;;;;;;;;;;14.70;99.90;;;;;;8430648;28;19920;-67
2022/07/28 04:27:17;;;;;;;;;;;14.70;99.90;;;;;;8425841;28;19927;-67
2022/07/28 04:36:16;;;;;;;;;;;14.70;99.90;;;;;;8419692;28;19999;-67
2022/07/28 04:40:17;;;;;;;;;;;14.60;99.90;;;;;;8462496;27;19924;-67
2022/07/28 04:44:19;;;;;;;;;;;14.60;99.90;;;;;;8426186;28;19927;-67
2022/07/28 04:48:21;;;;;;;;;;;14.60;99.90;;;;;;8429369;28;19930;-67
2022/07/28 05:02:37;;;;;;;;;;;14.60;99.90;;;;;;8388712;28;19911;-67
2022/07/28 05:06:38;;;;;;;;;;;14.70;99.90;;;;;;8426578;28;20351;-67
2022/07/28 05:10:40;;;;;;;;;;;14.70;99.90;;;;;;8428984;28;19924;-67
2022/07/28 05:14:42;;;;;;;;;;;14.70;99.90;;;;;;8423795;28;19920;-67
2022/07/28 05:18:43;;;;;;;;;;;14.70;99.90;;;;;;8427431;28;19927;-67
2022/07/28 05:22:46;;;;;;;;;;;14.70;99.90;;;;;;8428420;28;19927;-67
2022/07/28 05:26:48;;;;;;;;;;;14.80;99.90;;;;;;8427038;28;19930;-67
2022/07/28 05:30:49;;;;;;;;;;;14.80;99.90;;;;;;8428103;28;19920;-67
2022/07/28 05:34:51;;;;;;;;;;;14.80;99.90;;;;;;8426265;28;19969;-67
2022/07/28 05:38:52;;;;;;;;;;;14.80;99.90;;;;;;8409634;28;20283;-67
2022/07/28 05:42:54;;;;;;;;;;;14.90;99.90;;;;;;8425424;28;19927;-67
2022/07/28 05:46:56;;;;;;;;;;;15.10;99.90;;;;;;8424484;28;19920;-67
2022/07/28 05:50:59;;;;;;;;;;;15.20;99.90;;;;;;8404180;28;21332;-67
2022/07/28 05:55:01;;;;;;;;;;;15.30;99.90;;;;;;8419120;27;20024;-67
2022/07/28 05:59:02;;;;;;;;;;;15.50;99.90;;;;;;8385894;28;19932;-67
2022/07/28 06:03:04;;;;;;;;;;;15.60;99.90;;;;;;8385061;28;19935;-67
2022/07/28 06:07:06;;;;;;;;;;;15.80;99.90;;;;;;8385210;28;19931;-67
2022/07/28 06:11:08;;;;;;;;;;;15.90;99.90;;;;;;8386751;28;19928;-67
2022/07/28 06:15:14;;;;;;;;;;;16.00;99.90;;;;;;8382349;28;19947;-67
2022/07/28 06:19:16;;;;;;;;;;;16.10;99.90;;;;;;8384356;28;20535;-67
2022/07/28 06:23:19;;;;;;;;;;;16.10;99.90;;;;;;8384920;28;19928;-67
2022/07/28 06:27:20;;;;;;;;;;;16.10;99.90;;;;;;8385959;28;19928;-67
2022/07/28 06:31:22;;;;;;;;;;;16.10;99.90;;;;;;8385782;28;20284;-67
2022/07/28 06:40:28;;;;;;;;;;;16.20;99.90;;;;;;8385290;28;19970;-67
2022/07/28 06:44:29;;;;;;;;;;;16.50;99.90;;;;;;8415955;27;19928;-67
2022/07/28 06:48:51;;;;;;;;;;;16.70;99.90;;;;;;8388131;28;19932;-67
2022/07/28 06:52:54;;;;;;;;;;;16.80;99.90;;;;;;8390979;28;19928;-67
2022/07/28 06:56:56;;;;;;;;;;;16.90;99.90;;;;;;8389770;28;20334;-67
2022/07/28 07:00:57;;;;;;;;;;;17.00;99.90;;;;;;8390215;28;19931;-65
2022/07/28 07:04:59;;;;;;;;;;;17.00;99.90;;;;;;8422035;27;19928;-66
2022/07/28 07:09:01;;;;;;;;;;;17.00;99.90;;;;;;8390284;28;20299;-67
2022/07/28 07:13:02;;;;;;;;;;;16.90;99.90;;;;;;8391717;28;20255;-67
2022/07/28 07:17:04;;;;;;;;;;;17.00;99.90;;;;;;8392290;28;20370;-67
2022/07/28 07:21:05;;;;;;;;;;;16.90;99.90;;;;;;8389958;28;19931;-67
2022/07/28 07:25:09;;;;;;;;;;;16.90;99.90;;;;;;8389733;28;19935;-67
2022/07/28 07:29:10;;;;;;;;;;;16.90;99.90;;;;;;8389485;28;20224;-67
2022/07/28 07:33:12;;;;;;;;;;;16.90;99.90;;;;;;8389430;28;19932;-67
2022/07/28 07:37:14;;;;;;;;;;;16.90;99.90;;;;;;8389239;28;19929;-67
2022/07/28 07:56:19;;;;;;;;;;;17.20;99.90;;;;;;8389017;28;19927;-67
2022/07/28 08:00:21;;;;;;;;;;;17.30;99.90;;;;;;8388964;28;19935;-67
2022/07/28 08:04:29;;;;;;;;;;;17.40;99.90;;;;;;8387350;28;19928;-67
2022/07/28 08:08:31;;;;;;;;;;;17.60;99.90;;;;;;8388366;28;19925;-67
2022/07/28 08:12:39;;;;;;;;;;;17.80;99.90;;;;;;8387942;28;19979;-67
2022/07/28 08:16:40;;;;;;;;;;;18.00;99.90;;;;;;8391584;28;19940;-67
2022/07/28 08:20:42;;;;;;;;;;;18.10;99.90;;;;;;8387920;28;19931;-67
2022/07/28 08:24:44;;;;;;;;;;;18.20;99.90;;;;;;8386778;28;19930;-67
2022/07/28 08:28:45;;;;;;;;;;;18.30;99.90;;;;;;8387463;28;19925;-67
2022/07/28 08:32:47;;;;;;;;;;;18.40;99.90;;;;;;8388356;28;19930;-67
2022/07/28 08:36:57;;;;;;;;;;;18.50;99.90;;;;;;8387635;28;19930;-67
2022/07/28 08:41:02;;;;;;;;;;;18.60;99.90;;;;;;8387847;28;19929;-67
2022/07/28 08:45:05;;;;;;;;;;;18.70;99.90;;;;;;8419738;27;19924;-67
2022/07/28 08:49:07;;;;;;;;;;;18.70;99.90;;;;;;8386891;28;19924;-67
2022/07/28 08:53:09;;;;;;;;;;;18.80;99.90;;;;;;8388733;28;19944;-67
2022/07/28 08:57:16;;;;;;;;;;;18.90;99.90;;;;;;8386793;28;19932;-67
2022/07/28 09:01:18;;;;;;;;;;;18.90;99.90;;;;;;8389762;28;19928;-67
2022/07/28 09:05:20;;;;;;;;;;;19.00;99.90;;;;;;8385511;28;19928;-67
2022/07/28 09:09:22;;;;;;;;;;;19.10;99.90;;;;;;8386213;28;19929;-67
2022/07/28 09:13:23;;;;;;;;;;;19.20;99.90;;;;;;8386404;28;19933;-67
2022/07/28 09:17:25;;;;;;;;;;;19.20;99.90;;;;;;8386571;28;20371;-67
2022/07/28 09:21:27;;;;;;;;;;;19.20;99.90;;;;;;8386204;28;20280;-67
2022/07/28 09:25:29;;;;;;;;;;;19.30;99.90;;;;;;8385237;28;20283;-67
2022/07/28 09:29:30;;;;;;;;;;;19.40;99.90;;;;;;8387713;28;19943;-67
2022/07/28 09:33:33;;;;;;;;;;;19.50;99.90;;;;;;8386052;28;20343;-67
2022/07/28 09:37:44;;;;;;;;;;;19.50;99.90;;;;;;8386100;28;19924;-67
2022/07/28 09:41:51;;;;;;;;;;;19.60;99.90;;;;;;8387401;28;19944;-67
2022/07/28 09:46:01;;;;;;;;;;;19.70;99.90;;;;;;8384327;28;20323;-67
2022/07/28 09:55:15;;;;;;;;;;;19.80;99.90;;;;;;8385270;28;20362;-67
2022/07/28 09:59:17;;;;;;;;;;;19.90;99.90;;;;;;8387385;28;19955;-67
2022/07/28 10:03:23;;;;;;;;;;;19.90;99.90;;;;;;8386762;28;19935;-67
2022/07/28 10:07:28;;;;;;;;;;;20.00;99.90;;;;;;8385470;28;19928;-67
2022/07/28 10:11:29;;;;;;;;;;;20.10;99.90;;;;;;8419744;27;19940;-67
2022/07/28 10:19:53;;;;;;;;;;;20.10;99.90;;;;;;8385491;28;19936;-67
2022/07/28 10:23:55;;;;;;;;;;;20.20;99.90;;;;;;8386085;28;19957;-67
2022/07/28 10:28:00;;;;;;;;;;;20.30;99.90;;;;;;8393686;28;19929;-67
2022/07/28 10:32:04;;;;;;;;;;;20.40;99.90;;;;;;8393431;28;19932;-67
2022/07/28 10:36:06;;;;;;;;;;;20.40;99.90;;;;;;8389679;28;20416;-67
2022/07/28 10:40:10;;;;;;;;;;;20.40;99.90;;;;;;8391235;28;19931;-67
2022/07/28 10:44:17;;;;;;;;;;;20.40;99.90;;;;;;8389910;28;20390;-67
2022/07/28 10:48:20;;;;;;;;;;;20.50;99.90;;;;;;8389648;28;19928;-67
2022/07/28 10:52:22;;;;;;;;;;;20.60;99.90;;;;;;8393653;28;19929;-67
2022/07/28 10:57:03;;;;;;;;;;;20.70;99.90;;;;;;8391957;28;20024;-67
2022/07/28 11:01:05;;;;;;;;;;;20.90;99.90;;;;;;8392532;28;19959;-67
2022/07/28 11:05:24;;;;;;;;;;;21.00;99.90;;;;;;8391741;28;19928;-67
2022/07/28 11:09:25;;;;;;;;;;;21.00;99.90;;;;;;8390735;28;19924;-67
2022/07/28 11:13:29;;;;;;;;;;;21.00;99.90;;;;;;8388605;28;19924;-67
2022/07/28 11:17:30;;;;;;;;;;;21.10;99.90;;;;;;8388977;28;20287;-67
2022/07/28 11:21:34;;;;;;;;;;;21.20;99.90;;;;;;8391053;28;19931;-67
2022/07/28 11:25:41;;;;;;;;;;;21.20;99.90;;;;;;8390867;28;19969;-67
2022/07/28 11:29:45;;;;;;;;;;;21.20;99.90;;;;;;8391322;28;19924;-67
2022/07/28 11:33:53;;;;;;;;;;;21.30;99.90;;;;;;8391610;28;19924;-67
2022/07/28 11:38:00;;;;;;;;;;;21.50;99.90;;;;;;8388464;28;19924;-67
2022/07/28 11:42:21;;;;;;;;;;;21.60;99.90;;;;;;8390620;28;20383;-67
2022/07/28 11:46:22;;;;;;;;;;;21.70;99.90;;;;;;8389897;28;19925;-67
2022/07/28 11:50:24;;;;;;;;;;;21.80;99.90;;;;;;8390102;28;19935;-67
2022/07/28 11:54:26;;;;;;;;;;;21.90;99.90;;;;;;8390059;28;19939;-67
2022/07/28 11:58:28;;;;;;;;;;;22.00;99.90;;;;;;8388839;28;19970;-67
2022/07/28 12:02:30;;;;;;;;;;;22.00;99.90;;;;;;8389314;28;19929;-67
2022/07/28 12:06:36;;;;;;;;;;;22.00;99.90;;;;;;8388125;28;19968;-65
2022/07/28 12:10:37;;;;;;;;;;;22.00;99.90;;;;;;8425798;27;19936;-65
2022/07/28 12:14:57;;;;;;;;;;;22.10;99.90;;;;;;8388841;28;19925;-65
2022/07/28 12:19:03;;;;;;;;;;;22.10;99.90;;;;;;8389222;28;20394;-65
2022/07/28 12:23:06;;;;;;;;;;;22.10;99.90;;;;;;8387935;28;20292;-64
2022/07/28 12:27:09;;;;;;;;;;;22.20;99.90;;;;;;8387834;28;19928;-65
2022/07/28 12:31:11;;;;;;;;;;;22.20;99.90;;;;;;8421761;27;19924;-65
2022/07/28 12:35:13;;;;;;;;;;;22.30;99.90;;;;;;8387289;28;20367;-65
2022/07/28 12:39:21;;;;;;;;;;;22.30;99.90;;;;;;8388771;28;19929;-65
2022/07/28 12:43:28;;;;;;;;;;;22.40;99.90;;;;;;8386004;28;19935;-65
2022/07/28 12:47:30;;;;;;;;;;;22.40;99.90;;;;;;8388321;28;19935;-65
2022/07/28 12:51:35;;;;;;;;;;;22.50;99.90;;;;;;8387503;28;19924;-65
2022/07/28 12:55:37;;;;;;;;;;;22.50;99.90;;;;;;8387906;28;19943;-65
2022/07/28 12:59:39;;;;;;;;;;;22.50;99.90;;;;;;8387708;28;19928;-65
2022/07/28 13:03:46;;;;;;;;;;;22.50;99.90;;;;;;8386825;28;19948;-65
2022/07/28 13:08:00;;;;;;;;;;;22.60;99.90;;;;;;8387297;28;19924;-65
2022/07/28 13:12:12;;;;;;;;;;;22.50;99.90;;;;;;8388827;28;20306;-65
2022/07/28 13:16:13;;;;;;;;;;;22.50;99.90;;;;;;8417681;27;20288;-65
2022/07/28 13:20:15;;;;;;;;;;;22.50;99.90;;;;;;8386752;28;19924;-65
2022/07/28 13:24:18;;;;;;;;;;;22.40;99.90;;;;;;8385183;28;19925;-65
2022/07/28 13:28:21;;;;;;;;;;;22.50;99.90;;;;;;8385560;28;19933;-65
2022/07/28 13:32:22;;;;;;;;;;;22.60;99.90;;;;;;8389544;28;19928;-65
2022/07/28 13:36:24;;;;;;;;;;;22.70;99.90;;;;;;8418342;27;20355;-65
2022/07/28 13:40:26;;;;;;;;;;;22.80;99.90;;;;;;8386525;28;20299;-65
2022/07/28 13:44:28;;;;;;;;;;;22.80;99.90;;;;;;8385242;28;19942;-65
2022/07/28 13:48:31;;;;;;;;;;;22.90;99.90;;;;;;8385628;28;20009;-65
2022/07/28 13:52:33;;;;;;;;;;;22.90;99.90;;;;;;8388428;28;20268;-65
2022/07/28 13:56:35;;;;;;;;;;;22.90;99.90;;;;;;8387359;28;20024;-65
2022/07/28 14:00:37;;;;;;;;;;;22.80;99.90;;;;;;8386249;28;19929;-65
2022/07/28 14:04:39;;;;;;;;;;;22.80;99.90;;;;;;8384004;28;20703;-65
2022/07/28 14:08:40;;;;;;;;;;;22.80;99.90;;;;;;8386132;28;19939;-64
2022/07/28 14:12:42;;;;;;;;;;;22.70;99.90;;;;;;8387163;28;19929;-65
2022/07/28 14:16:45;;;;;;;;;;;22.70;99.90;;;;;;8384131;28;19924;-64
2022/07/28 14:20:48;;;;;;;;;;;22.70;99.90;;;;;;8384707;28;19924;-65
2022/07/28 14:24:49;;;;;;;;;;;22.60;99.90;;;;;;8418407;27;19933;-64
2022/07/28 14:28:51;;;;;;;;;;;22.60;99.90;;;;;;8387711;28;19928;-65
2022/07/28 14:32:53;;;;;;;;;;;22.70;99.90;;;;;;8386386;28;19947;-65
2022/07/28 14:36:55;;;;;;;;;;;22.80;99.90;;;;;;8384203;28;19924;-65
2022/07/28 14:40:56;;;;;;;;;;;23.10;99.90;;;;;;8385463;28;19931;-65
2022/07/28 14:44:58;;;;;;;;;;;23.40;99.90;;;;;;8384242;28;19999;-65
2022/07/28 14:49:00;;;;;;;;;;;23.50;99.90;;;;;;8388413;28;19933;-65
2022/07/28 14:53:02;;;;;;;;;;;23.70;99.90;;;;;;8386121;28;19920;-65
2022/07/28 14:57:04;;;;;;;;;;;23.80;99.90;;;;;;8384337;28;19920;-65
2022/07/28 15:01:05;;;;;;;;;;;23.90;99.90;;;;;;8385115;28;19921;-64
2022/07/28 15:05:07;;;;;;;;;;;23.90;99.90;;;;;;8416167;27;20336;-65
2022/07/28 15:14:12;;;;;;;;;;;23.80;99.90;;;;;;8388553;28;20417;-65
2022/07/28 15:18:15;;;;;;;;;;;23.60;99.90;;;;;;8390218;28;19930;-64
2022/07/28 15:22:16;;;;;;;;;;;23.40;99.90;;;;;;8390237;28;19921;-65
2022/07/28 15:26:18;;;;;;;;;;;23.30;99.90;;;;;;8389143;28;20368;-65
2022/07/28 15:30:20;;;;;;;;;;;23.20;99.90;;;;;;8390761;28;19928;-65
2022/07/28 15:34:21;;;;;;;;;;;23.20;99.90;;;;;;8408048;28;19946;-65
2022/07/28 15:38:23;;;;;;;;;;;23.20;99.90;;;;;;8388976;28;19924;-64
2022/07/28 15:42:25;;;;;;;;;;;23.20;99.90;;;;;;8389515;28;19926;-65
2022/07/28 15:46:26;;;;;;;;;;;23.10;99.90;;;;;;8389797;28;19920;-65
2022/07/28 15:50:28;;;;;;;;;;;23.00;99.90;;;;;;8390334;28;20053;-64
2022/07/28 15:54:30;;;;;;;;;;;23.00;99.90;;;;;;8389653;28;19947;-65
2022/07/28 15:58:31;;;;;;;;;;;22.90;99.90;;;;;;8389430;28;19927;-65
2022/07/28 16:02:33;;;;;;;;;;;22.80;99.90;;;;;;8421456;27;19921;-64
2022/07/28 16:10:55;;;;;;;;;;;22.70;99.90;;;;;;8390932;28;19920;-65
2022/07/28 16:14:57;;;;;;;;;;;22.70;99.90;;;;;;8388875;28;19920;-65
2022/07/28 16:18:59;;;;;;;;;;;22.70;99.90;;;;;;8388002;28;20283;-65
2022/07/28 16:23:02;;;;;;;;;;;22.60;99.90;;;;;;8387985;28;25052;-65
2022/07/28 16:27:03;;;;;;;;;;;22.60;99.90;;;;;;8404133;28;19927;-64
2022/07/28 16:31:05;;;;;;;;;;;22.60;99.90;;;;;;8390525;28;19936;-65
2022/07/28 16:35:07;;;;;;;;;;;22.60;99.90;;;;;;8388061;28;19924;-64
2022/07/28 16:39:09;;;;;;;;;;;22.60;99.90;;;;;;8389223;28;19924;-65
2022/07/28 16:43:10;;;;;;;;;;;22.50;99.90;;;;;;8387686;28;19921;-65
2022/07/28 16:47:12;;;;;;;;;;;22.60;99.90;;;;;;8388264;28;19920;-65
2022/07/28 16:51:13;;;;;;;;;;;22.50;99.90;;;;;;8386136;28;19920;-65
2022/07/28 16:55:16;;;;;;;;;;;22.50;99.90;;;;;;8387586;28;19920;-65
2022/07/28 16:59:23;;;;;;;;;;;22.50;99.90;;;;;;8388955;28;19931;-65
2022/07/28 17:03:25;;;;;;;;;;;22.50;99.90;;;;;;8388308;28;20275;-65
2022/07/28 17:07:26;;;;;;;;;;;22.50;99.90;;;;;;8386442;28;19921;-65
2022/07/28 17:11:28;;;;;;;;;;;22.50;99.90;;;;;;8388150;28;19935;-65
2022/07/28 17:15:30;;;;;;;;;;;22.50;99.90;;;;;;8386143;28;19928;-65
2022/07/28 17:19:31;;;;;;;;;;;22.50;99.90;;;;;;8387652;28;20312;-65
2022/07/28 17:23:33;;;;;;;;;;;22.50;99.90;;;;;;8385682;28;20240;-65
2022/07/28 17:27:37;;;;;;;;;;;22.50;99.90;;;;;;8386283;28;19926;-65
2022/07/28 17:31:42;;;;;;;;;;;22.50;99.90;;;;;;8387244;28;19928;-65
2022/07/28 17:35:43;;;;;;;;;;;22.40;99.90;;;;;;8382586;28;19970;-65
2022/07/28 17:39:45;;;;;;;;;;;22.40;99.90;;;;;;8388053;28;20367;-65
2022/07/28 17:43:47;;;;;;;;;;;22.40;99.90;;;;;;8387523;28;20239;-65
2022/07/28 17:47:49;;;;;;;;;;;22.40;99.90;;;;;;8385442;28;19920;-65
2022/07/28 17:51:50;;;;;;;;;;;22.40;99.90;;;;;;8386190;28;19966;-65
2022/07/28 17:55:52;;;;;;;;;;;22.30;99.90;;;;;;8384283;28;19947;-65
2022/07/28 18:00:01;;;;;;;;;;;22.20;99.90;;;;;;8387440;28;19935;-65
2022/07/28 18:04:03;;;;;;;;;;;22.20;99.90;;;;;;8385234;28;19921;-65
2022/07/28 18:08:05;;;;;;;;;;;22.20;99.90;;;;;;8383750;28;19931;-65
2022/07/28 18:12:08;;;;;;;;;;;22.10;99.90;;;;;;8385632;28;20375;-65
2022/07/28 18:16:09;;;;;;;;;;;22.10;99.90;;;;;;8417223;27;19927;-65
2022/07/28 18:20:11;;;;;;;;;;;22.00;99.90;;;;;;8386535;28;19986;-65
2022/07/28 18:24:12;;;;;;;;;;;22.00;99.90;;;;;;8388437;28;19924;-65
2022/07/28 18:28:15;;;;;;;;;;;22.00;99.90;;;;;;8384491;28;19959;-65
2022/07/28 18:32:17;;;;;;;;;;;22.00;99.90;;;;;;8387138;28;19920;-65
2022/07/28 18:36:19;;;;;;;;;;;21.90;99.90;;;;;;8383046;28;19924;-65
2022/07/28 19:21:07;;;;;;;;;;;21.40;99.90;;;;;;8389956;28;19991;-65
2022/07/28 19:25:09;;;;;;;;;;;21.40;99.90;;;;;;8389753;28;20364;-65
2022/07/28 19:29:11;;;;;;;;;;;21.30;99.80;;;;;;8390212;28;19928;-65
2022/07/28 19:33:15;;;;;;;;;;;21.30;99.80;;;;;;8392413;28;19928;-65
2022/07/28 19:37:21;;;;;;;;;;;21.30;99.80;;;;;;8390044;28;19927;-65
2022/07/28 19:41:22;;;;;;;;;;;21.30;99.80;;;;;;8390626;28;19931;-65
2022/07/28 19:45:25;;;;;;;1.40;0.80;;;21.20;99.70;;;;;;8387669;28;20268;-65
2022/07/28 19:49:26;;;;;;;1.80;0.80;;;21.10;99.70;;;;;;8389790;28;20041;-69
2022/07/28 19:53:28;;;;;;;;;;;21.10;99.70;;;;;;8388847;28;20127;-68
2022/07/28 19:57:33;;;;;;;2.00;0.75;;;21.00;99.70;;;;;;8389135;28;19920;-68
2022/07/28 20:01:35;;;;;;;2.00;0.65;;;21.00;99.70;;;;;;8388488;28;19924;-69
2022/07/28 20:05:46;;;;;;;1.15;0.70;;;21.00;99.70;;;;;;8385766;28;20048;-68
2022/07/28 20:09:48;;;;;;;1.23;0.68;;;20.90;99.70;;;;;;8389441;28;20059;-68
2022/07/28 20:13:51;;;;;;;0.80;0.60;;;20.80;99.60;;;;;;8387608;28;20380;-68
2022/07/28 20:17:52;;;;;;;2.92;0.82;;;20.80;99.70;;;;;;8389256;28;20344;-69
2022/07/28 20:21:56;;;;;;;1.23;0.60;;;20.80;99.70;;;;;;8390671;28;19936;-69
2022/07/28 20:25:57;;;;;;;;;;;20.80;99.90;;;;;;8387460;28;20062;-69
2022/07/28 20:30:00;;;;;;;;;;;20.70;99.70;;;;;;8387875;28;19927;-69
2022/07/28 20:34:05;;;;;;;;;;;20.60;99.60;;;;;;8387979;28;19974;-69
2022/07/28 20:38:07;;;;;;;;;;;20.60;99.70;;;;;;8385539;28;19920;-69
2022/07/28 20:42:09;;;;;;;1.27;0.70;;;20.60;99.70;;;;;;8387449;28;20133;-69
2022/07/28 20:46:11;;;;;;;1.05;0.70;;;20.50;99.70;;;;;;8385514;28;19921;-69
2022/07/28 20:50:13;;;;;;;;;;;20.50;99.70;;;;;;8386631;28;19920;-68
2022/07/28 20:54:15;;;;;;;2.17;0.80;;;20.40;99.70;;;;;;8388298;28;20394;-69
2022/07/28 20:58:17;;;;;;;;;;;20.40;99.70;;;;;;8387502;28;20053;-69
2022/07/28 21:02:19;;;;;;;;;;;20.30;99.70;;;;;;8400824;28;20397;-68
2022/07/28 21:06:21;;;;;;;;;;;20.30;99.70;;;;;;8424968;28;20410;-69
2022/07/28 21:10:22;;;;;;;;;;;20.30;99.80;;;;;;8427619;28;19938;-69
2022/07/28 21:14:24;;;;;;;;;;;20.20;99.80;;;;;;8426716;28;20419;-69
2022/07/28 21:18:26;;;;;;;;;;;20.20;99.80;;;;;;8426993;28;20388;-69
2022/07/28 21:22:27;;;;;;;;;;;20.20;99.80;;;;;;8427645;28;20383;-69
2022/07/28 21:26:29;;;;;;;;;;;20.10;99.70;;;;;;8427017;28;19920;-69
2022/07/28 21:30:31;;;;;;;;;;;20.10;99.80;;;;;;8427867;28;19920;-69
2022/07/28 21:34:33;;;;;;;;;;;20.10;99.80;;;;;;8425068;28;20013;-68
2022/07/28 21:38:35;;;;;;;;;;;20.00;99.80;;;;;;8410245;28;19924;-68
2022/07/28 21:42:36;;;;;;;;;;;20.00;99.80;;;;;;8427653;28;19927;-68
2022/07/28 21:46:41;;;;;;;;;;;20.00;99.80;;;;;;8425339;28;19919;-69
2022/07/28 21:50:42;;;;;;;;;;;19.90;99.80;;;;;;8427232;28;19920;-69
2022/07/28 21:54:44;;;;;;;;;;;19.90;99.80;;;;;;8424947;28;19920;-68
2022/07/28 21:58:46;;;;;;;;;;;19.90;99.90;;;;;;8426969;28;19942;-68
2022/07/28 22:02:48;;;;;;;;;;;19.80;99.80;;;;;;8426796;28;19927;-69
2022/07/28 22:06:49;;;;;;;;;;;19.70;99.80;;;;;;8424805;28;19920;-68
2022/07/28 22:10:51;;;;;;;;;;;19.70;99.90;;;;;;8427140;28;20422;-69
2022/07/28 22:14:53;;;;;;;;;;;19.70;99.90;;;;;;8425426;28;19974;-69
2022/07/28 22:18:54;;;;;;;;;;;19.70;99.90;;;;;;8426673;28;19926;-69
2022/07/28 22:22:56;;;;;;;;;;;19.60;99.90;;;;;;8431255;28;19920;-68
2022/07/28 22:26:58;;;;;;;;;;;19.60;99.90;;;;;;8433551;28;19924;-68
2022/07/28 22:30:59;;;;;;;;;;;19.60;99.90;;;;;;8432741;28;19920;-69
2022/07/28 22:35:10;;;;;;;;;;;19.50;99.90;;;;;;8427576;28;19927;-69
2022/07/28 22:39:11;;;;;;;;;;;19.50;99.90;;;;;;8408447;28;19921;-69
2022/07/28 22:43:13;;;;;;;;;;;19.40;99.90;;;;;;8423926;28;19920;-68
2022/07/28 22:47:15;;;;;;;;;;;19.40;99.90;;;;;;8432499;28;20375;-69
2022/07/28 22:51:17;;;;;;;;;;;19.30;99.90;;;;;;8432694;28;20220;-69
2022/07/28 22:55:19;;;;;;;;;;;19.30;99.90;;;;;;8431426;28;19920;-69
2022/07/28 22:59:37;;;;;;;;;;;19.30;99.90;;;;;;8431875;28;20020;-68
2022/07/28 23:03:40;;;;;;;;;;;19.30;99.90;;;;;;8431082;28;20287;-69
2022/07/28 23:07:42;;;;;;;;;;;19.30;99.90;;;;;;8429497;28;20264;-69
2022/07/28 23:11:53;;;;;;;;;;;19.20;99.90;;;;;;8431937;28;20287;-68
2022/07/28 23:15:56;;;;;;;;;;;19.20;99.90;;;;;;8430929;28;19920;-68
2022/07/28 23:20:00;;;;;;;;;;;19.10;99.90;;;;;;8432299;28;19920;-69
2022/07/28 23:24:02;;;;;;;;;;;19.10;99.90;;;;;;8430227;28;20271;-69
2022/07/28 23:28:04;;;;;;;;;;;19.10;99.90;;;;;;8424684;28;19977;-68
2022/07/28 23:32:08;;;;;;;;;;;19.00;99.90;;;;;;8431422;28;19973;-69
2022/07/28 23:36:13;;;;;;;;;;;19.00;99.90;;;;;;8423593;28;19926;-69
2022/07/28 23:50:40;;;;;;;;;;;18.80;99.90;;;;;;8428727;28;19914;-68
2022/07/28 23:54:42;;;;;;;;;;;18.80;99.90;;;;;;8430083;28;19947;-68
2022/07/28 23:58:44;;;;;;;;;;;18.80;99.90;;;;;;8431867;28;19977;-69
